CXA weather

Public forecast

Using degrees Celsius for public forecast. Weather courtesy of forecast.io.

Closest aviation weather report (METAR) to Caicara del Orinoco Airport

Report is more than 6 hours old.

Closest report is El Milagro Sureste Airport, 70.1 nm (129.8 km) WSW. Retrieved 2014/05/01 19:00 UTC (6 years ago):

SVML 011900Z 20007KT 8000 VCBR SCT020 BKN100 23/21 Q1018

Closest aviation forecast (TAF) to Caicara del Orinoco Airport

Forecast is more than 12 hours old.

Closest forecast is El Embrujo Airport, 66.0 nm (122.3 km) NNW. Retrieved 2019/05/10 00:00 UTC (1 year ago):

TAF SVMB 102200Z 1100/1200 22002KT 9000 DZ BKN016 TX29/19Z TN24/08Z BECMG 1104/1108 32002KT 9000 +DZ BKN020